sensor_id;sensor_type;location;lat;lon;timestamp;P1;durP1;ratioP1;P2;durP2;ratioP2
27839;SDS011;15207;42.182;24.308;2024-01-06T00:03:14;48.70;;;25.95;;
27839;SDS011;15207;42.182;24.308;2024-01-06T00:05:40;47.20;;;25.50;;
27839;SDS011;15207;42.182;24.308;2024-01-06T00:08:05;49.90;;;27.70;;
27839;SDS011;15207;42.182;24.308;2024-01-06T00:10:31;48.75;;;27.35;;
27839;SDS011;15207;42.182;24.308;2024-01-06T00:15:22;73.90;;;37.90;;
27839;SDS011;15207;42.182;24.308;2024-01-06T00:17:48;77.10;;;38.50;;
27839;SDS011;15207;42.182;24.308;2024-01-06T00:20:13;89.20;;;44.90;;
27839;SDS011;15207;42.182;24.308;2024-01-06T00:25:05;83.60;;;40.00;;
27839;SDS011;15207;42.182;24.308;2024-01-06T00:27:30;57.80;;;29.40;;
27839;SDS011;15207;42.182;24.308;2024-01-06T00:29:56;62.90;;;34.55;;
27839;SDS011;15207;42.182;24.308;2024-01-06T00:32:21;63.80;;;33.75;;
27839;SDS011;15207;42.182;24.308;2024-01-06T00:34:46;68.50;;;34.80;;
27839;SDS011;15207;42.182;24.308;2024-01-06T00:39:38;62.20;;;33.60;;
27839;SDS011;15207;42.182;24.308;2024-01-06T00:42:03;71.50;;;37.00;;
27839;SDS011;15207;42.182;24.308;2024-01-06T00:44:29;74.35;;;38.50;;
27839;SDS011;15207;42.182;24.308;2024-01-06T00:46:54;77.05;;;38.15;;
27839;SDS011;15207;42.182;24.308;2024-01-06T00:51:45;69.60;;;37.70;;
27839;SDS011;15207;42.182;24.308;2024-01-06T00:54:10;79.40;;;40.20;;
27839;SDS011;15207;42.182;24.308;2024-01-06T00:59:01;73.00;;;39.80;;
27839;SDS011;15207;42.182;24.308;2024-01-06T01:01:26;72.00;;;39.30;;
27839;SDS011;15207;42.182;24.308;2024-01-06T01:03:51;79.60;;;39.10;;
27839;SDS011;15207;42.182;24.308;2024-01-06T01:06:17;69.60;;;37.50;;
27839;SDS011;15207;42.182;24.308;2024-01-06T01:08:42;67.50;;;36.30;;
27839;SDS011;15207;42.182;24.308;2024-01-06T01:13:33;68.30;;;35.80;;
27839;SDS011;15207;42.182;24.308;2024-01-06T01:15:58;61.50;;;34.90;;
27839;SDS011;15207;42.182;24.308;2024-01-06T01:18:24;61.15;;;33.05;;
27839;SDS011;15207;42.182;24.308;2024-01-06T01:20:49;65.40;;;34.65;;
27839;SDS011;15207;42.182;24.308;2024-01-06T01:23:15;66.90;;;34.30;;
27839;SDS011;15207;42.182;24.308;2024-01-06T01:25:40;64.30;;;35.10;;
27839;SDS011;15207;42.182;24.308;2024-01-06T01:32:57;70.40;;;34.10;;
27839;SDS011;15207;42.182;24.308;2024-01-06T01:35:23;61.65;;;32.95;;
27839;SDS011;15207;42.182;24.308;2024-01-06T01:37:48;58.05;;;31.75;;
27839;SDS011;15207;42.182;24.308;2024-01-06T01:40:14;49.20;;;29.80;;
27839;SDS011;15207;42.182;24.308;2024-01-06T01:42:40;51.60;;;30.20;;
27839;SDS011;15207;42.182;24.308;2024-01-06T01:47:32;55.00;;;31.80;;
27839;SDS011;15207;42.182;24.308;2024-01-06T01:49:58;53.60;;;30.60;;
27839;SDS011;15207;42.182;24.308;2024-01-06T01:52:24;51.45;;;30.60;;
27839;SDS011;15207;42.182;24.308;2024-01-06T01:54:50;55.10;;;31.00;;
27839;SDS011;15207;42.182;24.308;2024-01-06T01:57:17;62.20;;;33.10;;
27839;SDS011;15207;42.182;24.308;2024-01-06T01:59:43;51.75;;;28.65;;
27839;SDS011;15207;42.182;24.308;2024-01-06T02:02:08;46.35;;;27.40;;
27839;SDS011;15207;42.182;24.308;2024-01-06T02:04:34;47.40;;;29.00;;
27839;SDS011;15207;42.182;24.308;2024-01-06T02:09:25;49.60;;;27.90;;
27839;SDS011;15207;42.182;24.308;2024-01-06T02:11:54;55.40;;;28.50;;
27839;SDS011;15207;42.182;24.308;2024-01-06T02:14:21;51.20;;;30.65;;
27839;SDS011;15207;42.182;24.308;2024-01-06T02:16:47;52.60;;;30.50;;
27839;SDS011;15207;42.182;24.308;2024-01-06T02:19:12;49.40;;;30.00;;
27839;SDS011;15207;42.182;24.308;2024-01-06T02:21:41;54.30;;;30.70;;
27839;SDS011;15207;42.182;24.308;2024-01-06T02:26:32;49.55;;;29.80;;
27839;SDS011;15207;42.182;24.308;2024-01-06T02:28:58;54.45;;;31.50;;
27839;SDS011;15207;42.182;24.308;2024-01-06T02:31:23;62.05;;;33.15;;
27839;SDS011;15207;42.182;24.308;2024-01-06T02:33:48;58.10;;;32.10;;
27839;SDS011;15207;42.182;24.308;2024-01-06T02:36:14;53.70;;;31.00;;
27839;SDS011;15207;42.182;24.308;2024-01-06T02:38:39;67.10;;;32.70;;
27839;SDS011;15207;42.182;24.308;2024-01-06T02:41:05;48.70;;;26.30;;
27839;SDS011;15207;42.182;24.308;2024-01-06T02:43:30;54.90;;;26.40;;
27839;SDS011;15207;42.182;24.308;2024-01-06T02:45:55;60.30;;;29.55;;
27839;SDS011;15207;42.182;24.308;2024-01-06T02:48:21;57.60;;;29.60;;
27839;SDS011;15207;42.182;24.308;2024-01-06T02:50:46;50.10;;;26.30;;
27839;SDS011;15207;42.182;24.308;2024-01-06T02:55:37;35.00;;;21.10;;
27839;SDS011;15207;42.182;24.308;2024-01-06T02:58:03;38.83;;;23.20;;
27839;SDS011;15207;42.182;24.308;2024-01-06T03:00:29;37.10;;;22.40;;
27839;SDS011;15207;42.182;24.308;2024-01-06T03:02:54;36.20;;;21.15;;
27839;SDS011;15207;42.182;24.308;2024-01-06T03:05:20;32.30;;;21.00;;
27839;SDS011;15207;42.182;24.308;2024-01-06T03:07:45;31.70;;;20.30;;
27839;SDS011;15207;42.182;24.308;2024-01-06T03:10:10;33.00;;;22.10;;
27839;SDS011;15207;42.182;24.308;2024-01-06T03:12:36;37.05;;;23.60;;
27839;SDS011;15207;42.182;24.308;2024-01-06T03:15:01;33.95;;;22.10;;
27839;SDS011;15207;42.182;24.308;2024-01-06T03:17:27;39.85;;;22.25;;
27839;SDS011;15207;42.182;24.308;2024-01-06T03:19:53;37.80;;;22.60;;
27839;SDS011;15207;42.182;24.308;2024-01-06T03:24:44;44.15;;;23.55;;
27839;SDS011;15207;42.182;24.308;2024-01-06T03:27:10;43.75;;;24.60;;
27839;SDS011;15207;42.182;24.308;2024-01-06T03:29:36;38.30;;;23.70;;
27839;SDS011;15207;42.182;24.308;2024-01-06T03:32:01;40.70;;;24.90;;
27839;SDS011;15207;42.182;24.308;2024-01-06T03:34:26;42.20;;;24.90;;
27839;SDS011;15207;42.182;24.308;2024-01-06T03:36:52;41.80;;;24.10;;
27839;SDS011;15207;42.182;24.308;2024-01-06T03:39:17;44.35;;;23.05;;
27839;SDS011;15207;42.182;24.308;2024-01-06T03:41:42;44.30;;;24.60;;
27839;SDS011;15207;42.182;24.308;2024-01-06T03:46:34;39.30;;;20.70;;
27839;SDS011;15207;42.182;24.308;2024-01-06T03:49:00;38.05;;;20.85;;
27839;SDS011;15207;42.182;24.308;2024-01-06T03:51:25;37.20;;;20.50;;
27839;SDS011;15207;42.182;24.308;2024-01-06T03:53:51;37.10;;;20.40;;
27839;SDS011;15207;42.182;24.308;2024-01-06T03:56:16;39.00;;;23.20;;
27839;SDS011;15207;42.182;24.308;2024-01-06T03:58:42;36.10;;;22.10;;
27839;SDS011;15207;42.182;24.308;2024-01-06T04:01:07;38.00;;;21.00;;
27839;SDS011;15207;42.182;24.308;2024-01-06T04:03:33;42.75;;;23.30;;
27839;SDS011;15207;42.182;24.308;2024-01-06T04:05:58;43.60;;;23.00;;
27839;SDS011;15207;42.182;24.308;2024-01-06T04:08:23;44.30;;;23.30;;
27839;SDS011;15207;42.182;24.308;2024-01-06T04:10:49;36.70;;;22.00;;
27839;SDS011;15207;42.182;24.308;2024-01-06T04:13:15;41.25;;;22.40;;
27839;SDS011;15207;42.182;24.308;2024-01-06T04:15:40;38.85;;;21.50;;
27839;SDS011;15207;42.182;24.308;2024-01-06T04:18:06;42.30;;;21.90;;
27839;SDS011;15207;42.182;24.308;2024-01-06T04:20:32;35.50;;;19.30;;
27839;SDS011;15207;42.182;24.308;2024-01-06T04:22:58;33.15;;;19.75;;
27839;SDS011;15207;42.182;24.308;2024-01-06T04:25:24;35.05;;;20.25;;
27839;SDS011;15207;42.182;24.308;2024-01-06T04:27:49;35.15;;;19.55;;
27839;SDS011;15207;42.182;24.308;2024-01-06T04:30:15;34.65;;;20.20;;
27839;SDS011;15207;42.182;24.308;2024-01-06T04:32:41;32.15;;;18.70;;
27839;SDS011;15207;42.182;24.308;2024-01-06T04:35:07;38.70;;;19.30;;
27839;SDS011;15207;42.182;24.308;2024-01-06T04:37:33;33.83;;;19.03;;
27839;SDS011;15207;42.182;24.308;2024-01-06T04:42:23;38.50;;;20.60;;
27839;SDS011;15207;42.182;24.308;2024-01-06T04:44:50;33.80;;;20.30;;
27839;SDS011;15207;42.182;24.308;2024-01-06T04:47:15;33.40;;;18.70;;
27839;SDS011;15207;42.182;24.308;2024-01-06T04:49:41;30.20;;;18.20;;
27839;SDS011;15207;42.182;24.308;2024-01-06T04:52:06;32.35;;;19.90;;
27839;SDS011;15207;42.182;24.308;2024-01-06T04:54:32;39.00;;;21.10;;
27839;SDS011;15207;42.182;24.308;2024-01-06T04:56:58;34.00;;;20.80;;
27839;SDS011;15207;42.182;24.308;2024-01-06T04:59:23;41.80;;;21.20;;
27839;SDS011;15207;42.182;24.308;2024-01-06T05:01:49;33.30;;;19.65;;
27839;SDS011;15207;42.182;24.308;2024-01-06T05:04:16;35.30;;;20.60;;
27839;SDS011;15207;42.182;24.308;2024-01-06T05:06:41;37.45;;;21.10;;
27839;SDS011;15207;42.182;24.308;2024-01-06T05:11:32;42.00;;;23.30;;
27839;SDS011;15207;42.182;24.308;2024-01-06T05:13:57;41.10;;;25.20;;
27839;SDS011;15207;42.182;24.308;2024-01-06T05:16:23;36.10;;;22.00;;
27839;SDS011;15207;42.182;24.308;2024-01-06T05:18:48;45.25;;;23.00;;
27839;SDS011;15207;42.182;24.308;2024-01-06T05:21:13;36.00;;;21.15;;
27839;SDS011;15207;42.182;24.308;2024-01-06T05:23:39;40.40;;;22.40;;
27839;SDS011;15207;42.182;24.308;2024-01-06T05:26:04;34.90;;;22.00;;
27839;SDS011;15207;42.182;24.308;2024-01-06T05:28:30;42.00;;;24.40;;
27839;SDS011;15207;42.182;24.308;2024-01-06T05:30:55;45.50;;;25.80;;
27839;SDS011;15207;42.182;24.308;2024-01-06T05:33:21;44.05;;;26.60;;
27839;SDS011;15207;42.182;24.308;2024-01-06T05:35:46;42.60;;;25.50;;
27839;SDS011;15207;42.182;24.308;2024-01-06T05:38:12;46.30;;;25.55;;
27839;SDS011;15207;42.182;24.308;2024-01-06T05:40:37;44.20;;;25.40;;
27839;SDS011;15207;42.182;24.308;2024-01-06T05:43:02;41.20;;;25.40;;
27839;SDS011;15207;42.182;24.308;2024-01-06T05:45:28;47.95;;;26.20;;
27839;SDS011;15207;42.182;24.308;2024-01-06T05:47:53;38.00;;;23.00;;
27839;SDS011;15207;42.182;24.308;2024-01-06T05:50:19;36.70;;;22.10;;
27839;SDS011;15207;42.182;24.308;2024-01-06T05:52:44;40.40;;;23.40;;
27839;SDS011;15207;42.182;24.308;2024-01-06T05:55:12;36.70;;;23.00;;
27839;SDS011;15207;42.182;24.308;2024-01-06T05:57:37;38.85;;;22.10;;
27839;SDS011;15207;42.182;24.308;2024-01-06T06:00:03;34.80;;;20.60;;
27839;SDS011;15207;42.182;24.308;2024-01-06T06:02:32;32.70;;;20.50;;
27839;SDS011;15207;42.182;24.308;2024-01-06T06:04:58;36.45;;;22.80;;
27839;SDS011;15207;42.182;24.308;2024-01-06T06:07:23;35.90;;;20.55;;
27839;SDS011;15207;42.182;24.308;2024-01-06T06:09:48;44.20;;;21.60;;
27839;SDS011;15207;42.182;24.308;2024-01-06T06:12:14;36.60;;;21.70;;
27839;SDS011;15207;42.182;24.308;2024-01-06T06:17:05;35.65;;;22.10;;
27839;SDS011;15207;42.182;24.308;2024-01-06T06:19:31;34.50;;;21.70;;
27839;SDS011;15207;42.182;24.308;2024-01-06T06:21:56;33.80;;;21.50;;
27839;SDS011;15207;42.182;24.308;2024-01-06T06:26:47;37.30;;;22.00;;
27839;SDS011;15207;42.182;24.308;2024-01-06T06:34:04;38.55;;;20.75;;
27839;SDS011;15207;42.182;24.308;2024-01-06T06:36:29;35.70;;;22.30;;
27839;SDS011;15207;42.182;24.308;2024-01-06T06:38:54;38.25;;;23.95;;
27839;SDS011;15207;42.182;24.308;2024-01-06T06:41:22;36.90;;;22.50;;
27839;SDS011;15207;42.182;24.308;2024-01-06T06:43:48;34.80;;;20.00;;
27839;SDS011;15207;42.182;24.308;2024-01-06T06:46:14;37.90;;;22.90;;
27839;SDS011;15207;42.182;24.308;2024-01-06T06:48:40;36.10;;;22.90;;
27839;SDS011;15207;42.182;24.308;2024-01-06T06:51:05;34.10;;;21.40;;
27839;SDS011;15207;42.182;24.308;2024-01-06T06:53:31;36.80;;;20.70;;
27839;SDS011;15207;42.182;24.308;2024-01-06T06:55:56;34.85;;;23.00;;
27839;SDS011;15207;42.182;24.308;2024-01-06T06:58:21;38.60;;;22.65;;
27839;SDS011;15207;42.182;24.308;2024-01-06T07:03:12;31.70;;;20.20;;
27839;SDS011;15207;42.182;24.308;2024-01-06T07:05:39;28.50;;;18.60;;
27839;SDS011;15207;42.182;24.308;2024-01-06T07:08:04;29.50;;;17.65;;
27839;SDS011;15207;42.182;24.308;2024-01-06T07:10:30;32.60;;;17.80;;
27839;SDS011;15207;42.182;24.308;2024-01-06T07:15:20;48.30;;;17.20;;
27839;SDS011;15207;42.182;24.308;2024-01-06T07:17:46;34.95;;;15.60;;
27839;SDS011;15207;42.182;24.308;2024-01-06T07:20:12;27.80;;;14.80;;
27839;SDS011;15207;42.182;24.308;2024-01-06T07:22:37;33.40;;;15.80;;
27839;SDS011;15207;42.182;24.308;2024-01-06T07:27:28;31.50;;;19.45;;
27839;SDS011;15207;42.182;24.308;2024-01-06T07:32:20;63.60;;;33.70;;
27839;SDS011;15207;42.182;24.308;2024-01-06T07:37:12;60.00;;;31.70;;
27839;SDS011;15207;42.182;24.308;2024-01-06T07:39:37;60.95;;;33.20;;
27839;SDS011;15207;42.182;24.308;2024-01-06T07:42:03;51.00;;;29.40;;
27839;SDS011;15207;42.182;24.308;2024-01-06T07:44:29;52.60;;;28.80;;
27839;SDS011;15207;42.182;24.308;2024-01-06T07:46:54;48.05;;;26.60;;
27839;SDS011;15207;42.182;24.308;2024-01-06T07:49:19;38.35;;;23.00;;
27839;SDS011;15207;42.182;24.308;2024-01-06T07:51:45;42.30;;;22.30;;
27839;SDS011;15207;42.182;24.308;2024-01-06T07:54:10;40.25;;;22.40;;
27839;SDS011;15207;42.182;24.308;2024-01-06T07:56:36;31.10;;;18.20;;
27839;SDS011;15207;42.182;24.308;2024-01-06T07:59:03;28.65;;;17.80;;
27839;SDS011;15207;42.182;24.308;2024-01-06T08:01:29;27.00;;;14.50;;
27839;SDS011;15207;42.182;24.308;2024-01-06T08:03:54;26.90;;;16.60;;
27839;SDS011;15207;42.182;24.308;2024-01-06T08:06:20;28.30;;;18.80;;
27839;SDS011;15207;42.182;24.308;2024-01-06T08:08:45;30.10;;;18.40;;
27839;SDS011;15207;42.182;24.308;2024-01-06T08:11:11;30.10;;;21.20;;
27839;SDS011;15207;42.182;24.308;2024-01-06T08:16:02;52.70;;;35.35;;
27839;SDS011;15207;42.182;24.308;2024-01-06T08:18:28;66.95;;;41.50;;
27839;SDS011;15207;42.182;24.308;2024-01-06T08:20:53;63.80;;;40.40;;
27839;SDS011;15207;42.182;24.308;2024-01-06T08:23:19;55.20;;;37.05;;
27839;SDS011;15207;42.182;24.308;2024-01-06T08:25:45;58.40;;;37.40;;
27839;SDS011;15207;42.182;24.308;2024-01-06T08:28:11;57.80;;;32.75;;
27839;SDS011;15207;42.182;24.308;2024-01-06T08:30:37;38.00;;;20.50;;
27839;SDS011;15207;42.182;24.308;2024-01-06T08:33:02;34.10;;;20.20;;
27839;SDS011;15207;42.182;24.308;2024-01-06T08:35:27;31.40;;;17.30;;
27839;SDS011;15207;42.182;24.308;2024-01-06T08:37:53;27.50;;;17.30;;
27839;SDS011;15207;42.182;24.308;2024-01-06T08:40:18;31.40;;;18.30;;
27839;SDS011;15207;42.182;24.308;2024-01-06T08:42:44;33.45;;;16.95;;
27839;SDS011;15207;42.182;24.308;2024-01-06T08:45:09;30.50;;;16.80;;
27839;SDS011;15207;42.182;24.308;2024-01-06T08:47:34;29.80;;;15.53;;
27839;SDS011;15207;42.182;24.308;2024-01-06T08:50:00;23.40;;;14.50;;
27839;SDS011;15207;42.182;24.308;2024-01-06T08:52:25;26.60;;;14.73;;
27839;SDS011;15207;42.182;24.308;2024-01-06T08:57:16;24.15;;;13.70;;
27839;SDS011;15207;42.182;24.308;2024-01-06T08:59:41;21.90;;;13.60;;
27839;SDS011;15207;42.182;24.308;2024-01-06T09:02:07;23.85;;;14.55;;
27839;SDS011;15207;42.182;24.308;2024-01-06T09:04:32;25.50;;;16.90;;
27839;SDS011;15207;42.182;24.308;2024-01-06T09:09:23;26.40;;;14.60;;
27839;SDS011;15207;42.182;24.308;2024-01-06T09:11:49;22.30;;;14.10;;
27839;SDS011;15207;42.182;24.308;2024-01-06T09:14:16;24.90;;;14.60;;
27839;SDS011;15207;42.182;24.308;2024-01-06T09:16:42;26.80;;;14.20;;
27839;SDS011;15207;42.182;24.308;2024-01-06T09:23:58;32.00;;;15.60;;
27839;SDS011;15207;42.182;24.308;2024-01-06T09:26:23;30.20;;;15.30;;
27839;SDS011;15207;42.182;24.308;2024-01-06T09:28:49;26.30;;;15.60;;
27839;SDS011;15207;42.182;24.308;2024-01-06T09:31:15;25.80;;;14.70;;
27839;SDS011;15207;42.182;24.308;2024-01-06T09:33:40;24.30;;;15.20;;
27839;SDS011;15207;42.182;24.308;2024-01-06T09:38:31;21.20;;;13.60;;
27839;SDS011;15207;42.182;24.308;2024-01-06T09:40:57;24.45;;;13.15;;
27839;SDS011;15207;42.182;24.308;2024-01-06T09:45:52;45.20;;;13.30;;
27839;SDS011;15207;42.182;24.308;2024-01-06T09:48:23;42.70;;;16.10;;
27839;SDS011;15207;42.182;24.308;2024-01-06T09:50:54;39.40;;;19.60;;
27839;SDS011;15207;42.182;24.308;2024-01-06T09:53:22;27.10;;;16.00;;
27839;SDS011;15207;42.182;24.308;2024-01-06T09:58:17;22.50;;;12.75;;
27839;SDS011;15207;42.182;24.308;2024-01-06T10:00:43;21.70;;;12.30;;
27839;SDS011;15207;42.182;24.308;2024-01-06T10:03:08;23.10;;;12.40;;
27839;SDS011;15207;42.182;24.308;2024-01-06T10:05:34;17.90;;;11.40;;
27839;SDS011;15207;42.182;24.308;2024-01-06T10:08:01;19.55;;;11.35;;
27839;SDS011;15207;42.182;24.308;2024-01-06T10:10:29;26.45;;;13.40;;
27839;SDS011;15207;42.182;24.308;2024-01-06T10:15:20;21.20;;;14.40;;
27839;SDS011;15207;42.182;24.308;2024-01-06T10:17:46;21.90;;;14.20;;
27839;SDS011;15207;42.182;24.308;2024-01-06T10:20:11;24.95;;;13.95;;
27839;SDS011;15207;42.182;24.308;2024-01-06T10:22:38;26.85;;;16.65;;
27839;SDS011;15207;42.182;24.308;2024-01-06T10:25:06;25.90;;;16.70;;
27839;SDS011;15207;42.182;24.308;2024-01-06T10:30:08;21.90;;;15.60;;
27839;SDS011;15207;42.182;24.308;2024-01-06T10:32:35;26.70;;;15.40;;
27839;SDS011;15207;42.182;24.308;2024-01-06T10:37:28;25.80;;;14.70;;
27839;SDS011;15207;42.182;24.308;2024-01-06T10:42:36;18.50;;;10.95;;
27839;SDS011;15207;42.182;24.308;2024-01-06T10:45:05;34.60;;;11.40;;
27839;SDS011;15207;42.182;24.308;2024-01-06T10:49:59;22.60;;;11.60;;
27839;SDS011;15207;42.182;24.308;2024-01-06T10:52:25;23.30;;;11.80;;
27839;SDS011;15207;42.182;24.308;2024-01-06T10:54:53;22.90;;;12.05;;
27839;SDS011;15207;42.182;24.308;2024-01-06T10:57:20;18.90;;;9.70;;
27839;SDS011;15207;42.182;24.308;2024-01-06T11:02:14;22.90;;;11.40;;
27839;SDS011;15207;42.182;24.308;2024-01-06T11:04:42;21.60;;;10.70;;
27839;SDS011;15207;42.182;24.308;2024-01-06T11:07:10;22.00;;;12.70;;
27839;SDS011;15207;42.182;24.308;2024-01-06T11:09:36;25.60;;;12.30;;
27839;SDS011;15207;42.182;24.308;2024-01-06T11:14:35;20.50;;;11.80;;
27839;SDS011;15207;42.182;24.308;2024-01-06T11:17:02;21.20;;;11.90;;
27839;SDS011;15207;42.182;24.308;2024-01-06T11:24:57;30.15;;;16.15;;
27839;SDS011;15207;42.182;24.308;2024-01-06T11:27:30;37.15;;;18.15;;
27839;SDS011;15207;42.182;24.308;2024-01-06T11:30:00;21.20;;;11.75;;
27839;SDS011;15207;42.182;24.308;2024-01-06T11:32:31;20.20;;;10.70;;
27839;SDS011;15207;42.182;24.308;2024-01-06T11:40:15;30.20;;;12.75;;
27839;SDS011;15207;42.182;24.308;2024-01-06T11:42:56;25.70;;;12.50;;
27839;SDS011;15207;42.182;24.308;2024-01-06T11:45:24;33.70;;;15.60;;
27839;SDS011;15207;42.182;24.308;2024-01-06T11:47:49;30.10;;;16.30;;
27839;SDS011;15207;42.182;24.308;2024-01-06T11:50:22;29.70;;;17.50;;
27839;SDS011;15207;42.182;24.308;2024-01-06T11:52:48;32.75;;;19.45;;
27839;SDS011;15207;42.182;24.308;2024-01-06T11:57:41;43.35;;;23.20;;
27839;SDS011;15207;42.182;24.308;2024-01-06T12:00:07;43.00;;;21.70;;
27839;SDS011;15207;42.182;24.308;2024-01-06T12:02:33;47.20;;;21.60;;
27839;SDS011;15207;42.182;24.308;2024-01-06T12:04:58;37.80;;;20.40;;
27839;SDS011;15207;42.182;24.308;2024-01-06T12:07:24;39.10;;;20.05;;
27839;SDS011;15207;42.182;24.308;2024-01-06T12:09:50;34.20;;;15.80;;
27839;SDS011;15207;42.182;24.308;2024-01-06T12:12:16;30.40;;;14.95;;
27839;SDS011;15207;42.182;24.308;2024-01-06T12:14:43;28.80;;;11.60;;
27839;SDS011;15207;42.182;24.308;2024-01-06T12:19:35;17.60;;;10.30;;
27839;SDS011;15207;42.182;24.308;2024-01-06T12:24:29;26.95;;;11.90;;
27839;SDS011;15207;42.182;24.308;2024-01-06T12:26:55;24.20;;;11.50;;
27839;SDS011;15207;42.182;24.308;2024-01-06T12:29:22;18.85;;;11.50;;
27839;SDS011;15207;42.182;24.308;2024-01-06T12:31:48;20.75;;;12.05;;
27839;SDS011;15207;42.182;24.308;2024-01-06T12:34:13;29.40;;;13.40;;
27839;SDS011;15207;42.182;24.308;2024-01-06T12:36:39;28.25;;;14.10;;
27839;SDS011;15207;42.182;24.308;2024-01-06T12:39:11;25.65;;;11.90;;
27839;SDS011;15207;42.182;24.308;2024-01-06T12:41:41;24.75;;;12.35;;
27839;SDS011;15207;42.182;24.308;2024-01-06T12:44:06;20.60;;;11.90;;
27839;SDS011;15207;42.182;24.308;2024-01-06T12:46:33;23.05;;;11.50;;
27839;SDS011;15207;42.182;24.308;2024-01-06T12:51:24;24.30;;;11.00;;
27839;SDS011;15207;42.182;24.308;2024-01-06T12:53:49;20.80;;;10.70;;
27839;SDS011;15207;42.182;24.308;2024-01-06T12:56:14;16.25;;;8.60;;
27839;SDS011;15207;42.182;24.308;2024-01-06T12:58:40;23.00;;;9.50;;
27839;SDS011;15207;42.182;24.308;2024-01-06T13:01:06;20.05;;;10.20;;
27839;SDS011;15207;42.182;24.308;2024-01-06T13:03:32;16.70;;;9.90;;
27839;SDS011;15207;42.182;24.308;2024-01-06T13:05:58;21.90;;;10.35;;
27839;SDS011;15207;42.182;24.308;2024-01-06T13:08:24;23.90;;;11.15;;
27839;SDS011;15207;42.182;24.308;2024-01-06T13:10:50;18.20;;;10.10;;
27839;SDS011;15207;42.182;24.308;2024-01-06T13:13:15;23.90;;;10.50;;
27839;SDS011;15207;42.182;24.308;2024-01-06T13:15:40;20.30;;;10.30;;
27839;SDS011;15207;42.182;24.308;2024-01-06T13:22:57;19.60;;;10.10;;
27839;SDS011;15207;42.182;24.308;2024-01-06T13:25:22;18.40;;;10.80;;
27839;SDS011;15207;42.182;24.308;2024-01-06T13:27:48;23.10;;;10.40;;
27839;SDS011;15207;42.182;24.308;2024-01-06T13:30:15;24.60;;;11.10;;
27839;SDS011;15207;42.182;24.308;2024-01-06T13:32:40;20.70;;;11.55;;
27839;SDS011;15207;42.182;24.308;2024-01-06T13:35:06;22.05;;;12.30;;
27839;SDS011;15207;42.182;24.308;2024-01-06T13:37:32;20.70;;;11.40;;
27839;SDS011;15207;42.182;24.308;2024-01-06T13:39:58;20.70;;;12.10;;
27839;SDS011;15207;42.182;24.308;2024-01-06T13:42:23;27.90;;;13.00;;
27839;SDS011;15207;42.182;24.308;2024-01-06T13:44:49;24.80;;;12.10;;
27839;SDS011;15207;42.182;24.308;2024-01-06T13:47:14;18.20;;;11.05;;
27839;SDS011;15207;42.182;24.308;2024-01-06T13:49:40;23.05;;;12.80;;
27839;SDS011;15207;42.182;24.308;2024-01-06T13:52:06;38.00;;;15.20;;
27839;SDS011;15207;42.182;24.308;2024-01-06T13:54:34;31.95;;;17.05;;
27839;SDS011;15207;42.182;24.308;2024-01-06T13:57:00;25.90;;;12.20;;
27839;SDS011;15207;42.182;24.308;2024-01-06T13:59:26;34.50;;;13.50;;
27839;SDS011;15207;42.182;24.308;2024-01-06T14:01:51;29.10;;;13.65;;
27839;SDS011;15207;42.182;24.308;2024-01-06T14:04:17;31.85;;;15.80;;
27839;SDS011;15207;42.182;24.308;2024-01-06T14:06:43;26.20;;;14.10;;
27839;SDS011;15207;42.182;24.308;2024-01-06T14:11:34;27.70;;;14.90;;
27839;SDS011;15207;42.182;24.308;2024-01-06T14:13:59;39.80;;;15.55;;
27839;SDS011;15207;42.182;24.308;2024-01-06T14:16:25;34.85;;;15.05;;
27839;SDS011;15207;42.182;24.308;2024-01-06T14:18:51;29.10;;;15.30;;
27839;SDS011;15207;42.182;24.308;2024-01-06T14:21:17;29.80;;;16.20;;
27839;SDS011;15207;42.182;24.308;2024-01-06T14:23:47;30.10;;;15.40;;
27839;SDS011;15207;42.182;24.308;2024-01-06T14:26:14;27.40;;;14.60;;
27839;SDS011;15207;42.182;24.308;2024-01-06T14:28:44;28.40;;;15.95;;
27839;SDS011;15207;42.182;24.308;2024-01-06T14:31:10;34.75;;;16.85;;
27839;SDS011;15207;42.182;24.308;2024-01-06T14:33:36;43.00;;;17.70;;
27839;SDS011;15207;42.182;24.308;2024-01-06T14:36:01;32.70;;;16.00;;
27839;SDS011;15207;42.182;24.308;2024-01-06T14:40:53;38.75;;;19.30;;
27839;SDS011;15207;42.182;24.308;2024-01-06T14:43:18;40.00;;;17.55;;
27839;SDS011;15207;42.182;24.308;2024-01-06T14:45:44;34.60;;;18.00;;
27839;SDS011;15207;42.182;24.308;2024-01-06T14:48:09;45.90;;;20.30;;
27839;SDS011;15207;42.182;24.308;2024-01-06T14:53:00;33.90;;;19.10;;
27839;SDS011;15207;42.182;24.308;2024-01-06T14:57:51;48.05;;;23.30;;
27839;SDS011;15207;42.182;24.308;2024-01-06T15:02:42;44.95;;;21.45;;
27839;SDS011;15207;42.182;24.308;2024-01-06T15:05:11;57.35;;;21.35;;
27839;SDS011;15207;42.182;24.308;2024-01-06T15:07:36;45.00;;;20.45;;
27839;SDS011;15207;42.182;24.308;2024-01-06T15:10:02;42.60;;;21.00;;
27839;SDS011;15207;42.182;24.308;2024-01-06T15:12:29;35.00;;;19.20;;
27839;SDS011;15207;42.182;24.308;2024-01-06T15:14:55;38.33;;;20.07;;
27839;SDS011;15207;42.182;24.308;2024-01-06T15:17:20;35.30;;;19.40;;
27839;SDS011;15207;42.182;24.308;2024-01-06T15:19:46;39.70;;;20.20;;
27839;SDS011;15207;42.182;24.308;2024-01-06T15:24:37;42.50;;;22.70;;
27839;SDS011;15207;42.182;24.308;2024-01-06T15:27:03;48.50;;;24.80;;
27839;SDS011;15207;42.182;24.308;2024-01-06T15:29:29;42.90;;;19.40;;
27839;SDS011;15207;42.182;24.308;2024-01-06T15:34:25;40.70;;;21.40;;
27839;SDS011;15207;42.182;24.308;2024-01-06T15:36:51;56.15;;;25.20;;
27839;SDS011;15207;42.182;24.308;2024-01-06T15:39:17;48.45;;;24.90;;
27839;SDS011;15207;42.182;24.308;2024-01-06T15:44:08;63.70;;;32.10;;
27839;SDS011;15207;42.182;24.308;2024-01-06T15:46:33;59.45;;;30.85;;
27839;SDS011;15207;42.182;24.308;2024-01-06T15:48:59;66.90;;;32.75;;
27839;SDS011;15207;42.182;24.308;2024-01-06T15:51:24;59.00;;;33.05;;
27839;SDS011;15207;42.182;24.308;2024-01-06T15:53:50;78.15;;;38.35;;
27839;SDS011;15207;42.182;24.308;2024-01-06T15:58:41;133.60;;;67.40;;
27839;SDS011;15207;42.182;24.308;2024-01-06T16:01:06;105.00;;;54.50;;
27839;SDS011;15207;42.182;24.308;2024-01-06T16:03:32;86.85;;;45.95;;
27839;SDS011;15207;42.182;24.308;2024-01-06T16:05:57;77.55;;;41.90;;
27839;SDS011;15207;42.182;24.308;2024-01-06T16:08:23;89.60;;;46.60;;
27839;SDS011;15207;42.182;24.308;2024-01-06T16:10:49;92.60;;;50.40;;
27839;SDS011;15207;42.182;24.308;2024-01-06T16:13:14;125.80;;;58.40;;
27839;SDS011;15207;42.182;24.308;2024-01-06T16:18:05;101.45;;;51.25;;
27839;SDS011;15207;42.182;24.308;2024-01-06T16:20:31;126.15;;;61.40;;
27839;SDS011;15207;42.182;24.308;2024-01-06T16:22:56;125.50;;;63.40;;
27839;SDS011;15207;42.182;24.308;2024-01-06T16:25:22;129.40;;;66.40;;
27839;SDS011;15207;42.182;24.308;2024-01-06T16:32:38;137.80;;;68.60;;
27839;SDS011;15207;42.182;24.308;2024-01-06T16:35:04;161.35;;;72.80;;